sensor_id;sensor_type;location;lat;lon;timestamp;temperature;humidity
72591;SHT31;60625;51.212;5.952;2024-01-07T00:02:47;2.37;87.03
72591;SHT31;60625;51.212;5.952;2024-01-07T00:07:47;2.40;87.08
72591;SHT31;60625;51.212;5.952;2024-01-07T00:12:50;2.41;86.94
72591;SHT31;60625;51.212;5.952;2024-01-07T00:17:52;2.39;86.66
72591;SHT31;60625;51.212;5.952;2024-01-07T00:22:52;2.40;86.62
72591;SHT31;60625;51.212;5.952;2024-01-07T00:27:53;2.40;86.53
72591;SHT31;60625;51.212;5.952;2024-01-07T00:32:55;2.40;86.56
72591;SHT31;60625;51.212;5.952;2024-01-07T00:37:56;2.41;86.50
72591;SHT31;60625;51.212;5.952;2024-01-07T00:42:57;2.42;86.51
72591;SHT31;60625;51.212;5.952;2024-01-07T00:47:57;2.41;86.45
72591;SHT31;60625;51.212;5.952;2024-01-07T00:52:59;2.39;86.46
72591;SHT31;60625;51.212;5.952;2024-01-07T00:57:59;2.38;86.46
72591;SHT31;60625;51.212;5.952;2024-01-07T01:03:00;2.37;86.50
72591;SHT31;60625;51.212;5.952;2024-01-07T01:08:00;2.38;86.66
72591;SHT31;60625;51.212;5.952;2024-01-07T01:13:01;2.38;86.82
72591;SHT31;60625;51.212;5.952;2024-01-07T01:18:01;2.39;86.88
72591;SHT31;60625;51.212;5.952;2024-01-07T01:23:02;2.37;86.93
72591;SHT31;60625;51.212;5.952;2024-01-07T01:28:02;2.37;87.08
72591;SHT31;60625;51.212;5.952;2024-01-07T01:33:04;2.38;87.32
72591;SHT31;60625;51.212;5.952;2024-01-07T01:38:04;2.35;87.39
72591;SHT31;60625;51.212;5.952;2024-01-07T01:43:05;2.34;87.55
72591;SHT31;60625;51.212;5.952;2024-01-07T01:48:05;2.33;87.79
72591;SHT31;60625;51.212;5.952;2024-01-07T01:53:06;2.33;88.01
72591;SHT31;60625;51.212;5.952;2024-01-07T01:58:08;2.32;88.14
72591;SHT31;60625;51.212;5.952;2024-01-07T02:03:10;2.30;88.35
72591;SHT31;60625;51.212;5.952;2024-01-07T02:08:10;2.31;88.57
72591;SHT31;60625;51.212;5.952;2024-01-07T02:13:11;2.31;88.70
72591;SHT31;60625;51.212;5.952;2024-01-07T02:18:12;2.31;88.84
72591;SHT31;60625;51.212;5.952;2024-01-07T02:23:13;2.31;88.93
72591;SHT31;60625;51.212;5.952;2024-01-07T02:28:13;2.29;89.03
72591;SHT31;60625;51.212;5.952;2024-01-07T02:33:14;2.26;89.19
72591;SHT31;60625;51.212;5.952;2024-01-07T02:38:15;2.26;89.32
72591;SHT31;60625;51.212;5.952;2024-01-07T02:43:16;2.29;89.40
72591;SHT31;60625;51.212;5.952;2024-01-07T02:48:17;2.30;89.39
72591;SHT31;60625;51.212;5.952;2024-01-07T02:53:17;2.29;89.35
72591;SHT31;60625;51.212;5.952;2024-01-07T02:58:18;2.30;89.28
72591;SHT31;60625;51.212;5.952;2024-01-07T03:03:19;2.28;89.19
72591;SHT31;60625;51.212;5.952;2024-01-07T03:08:19;2.30;89.21
72591;SHT31;60625;51.212;5.952;2024-01-07T03:13:20;2.29;89.11
72591;SHT31;60625;51.212;5.952;2024-01-07T03:18:20;2.29;89.14
72591;SHT31;60625;51.212;5.952;2024-01-07T03:23:21;2.29;89.07
72591;SHT31;60625;51.212;5.952;2024-01-07T03:28:21;2.28;88.93
72591;SHT31;60625;51.212;5.952;2024-01-07T03:33:22;2.29;88.83
72591;SHT31;60625;51.212;5.952;2024-01-07T03:38:22;2.31;88.79
72591;SHT31;60625;51.212;5.952;2024-01-07T03:43:23;2.30;88.68
72591;SHT31;60625;51.212;5.952;2024-01-07T03:48:23;2.25;88.56
72591;SHT31;60625;51.212;5.952;2024-01-07T03:53:24;2.23;88.60
72591;SHT31;60625;51.212;5.952;2024-01-07T03:58:24;2.19;88.54
72591;SHT31;60625;51.212;5.952;2024-01-07T04:03:25;2.18;88.58
72591;SHT31;60625;51.212;5.952;2024-01-07T04:08:25;2.18;88.65
72591;SHT31;60625;51.212;5.952;2024-01-07T04:13:26;2.17;88.68
72591;SHT31;60625;51.212;5.952;2024-01-07T04:18:26;2.15;88.61
72591;SHT31;60625;51.212;5.952;2024-01-07T04:23:26;2.15;88.48
72591;SHT31;60625;51.212;5.952;2024-01-07T04:28:27;2.15;88.47
72591;SHT31;60625;51.212;5.952;2024-01-07T04:33:28;2.15;88.48
72591;SHT31;60625;51.212;5.952;2024-01-07T04:38:28;2.11;88.32
72591;SHT31;60625;51.212;5.952;2024-01-07T04:43:29;2.07;88.29
72591;SHT31;60625;51.212;5.952;2024-01-07T04:48:29;2.05;88.28
72591;SHT31;60625;51.212;5.952;2024-01-07T04:53:30;2.05;88.31
72591;SHT31;60625;51.212;5.952;2024-01-07T04:58:30;2.03;88.30
72591;SHT31;60625;51.212;5.952;2024-01-07T05:03:31;2.03;88.25
72591;SHT31;60625;51.212;5.952;2024-01-07T05:08:32;2.02;88.17
72591;SHT31;60625;51.212;5.952;2024-01-07T05:13:33;2.00;88.12
72591;SHT31;60625;51.212;5.952;2024-01-07T05:18:34;2.00;88.18
72591;SHT31;60625;51.212;5.952;2024-01-07T05:23:35;2.00;88.28
72591;SHT31;60625;51.212;5.952;2024-01-07T05:28:36;2.01;88.23
72591;SHT31;60625;51.212;5.952;2024-01-07T05:33:37;2.02;88.04
72591;SHT31;60625;51.212;5.952;2024-01-07T05:38:38;2.01;87.65
72591;SHT31;60625;51.212;5.952;2024-01-07T05:43:41;1.99;87.60
72591;SHT31;60625;51.212;5.952;2024-01-07T05:48:42;1.99;87.72
72591;SHT31;60625;51.212;5.952;2024-01-07T05:53:45;1.97;87.75
72591;SHT31;60625;51.212;5.952;2024-01-07T05:58:46;1.93;87.72
72591;SHT31;60625;51.212;5.952;2024-01-07T06:03:47;1.90;87.68
72591;SHT31;60625;51.212;5.952;2024-01-07T06:08:48;1.88;87.49
72591;SHT31;60625;51.212;5.952;2024-01-07T06:13:48;1.88;87.43
72591;SHT31;60625;51.212;5.952;2024-01-07T06:18:49;1.88;87.25
72591;SHT31;60625;51.212;5.952;2024-01-07T06:23:49;1.87;87.19
72591;SHT31;60625;51.212;5.952;2024-01-07T06:28:50;1.87;87.07
72591;SHT31;60625;51.212;5.952;2024-01-07T06:33:50;1.86;87.11
72591;SHT31;60625;51.212;5.952;2024-01-07T06:38:52;1.83;87.04
72591;SHT31;60625;51.212;5.952;2024-01-07T06:43:53;1.83;86.90
72591;SHT31;60625;51.212;5.952;2024-01-07T06:48:57;1.85;87.08
72591;SHT31;60625;51.212;5.952;2024-01-07T06:53:57;1.85;87.14
72591;SHT31;60625;51.212;5.952;2024-01-07T06:58:57;1.85;87.04
72591;SHT31;60625;51.212;5.952;2024-01-07T07:03:58;1.81;86.57
72591;SHT31;60625;51.212;5.952;2024-01-07T07:08:58;1.80;86.60
72591;SHT31;60625;51.212;5.952;2024-01-07T07:13:59;1.81;86.58
72591;SHT31;60625;51.212;5.952;2024-01-07T07:19:00;1.81;86.70
72591;SHT31;60625;51.212;5.952;2024-01-07T07:24:00;1.81;86.86
72591;SHT31;60625;51.212;5.952;2024-01-07T07:29:01;1.81;86.86
72591;SHT31;60625;51.212;5.952;2024-01-07T07:34:05;1.77;86.29
72591;SHT31;60625;51.212;5.952;2024-01-07T07:39:09;1.74;86.27
72591;SHT31;60625;51.212;5.952;2024-01-07T07:44:09;1.69;85.97
72591;SHT31;60625;51.212;5.952;2024-01-07T07:49:10;1.67;86.00
72591;SHT31;60625;51.212;5.952;2024-01-07T07:54:11;1.65;85.96
72591;SHT31;60625;51.212;5.952;2024-01-07T07:59:11;1.61;85.89
72591;SHT31;60625;51.212;5.952;2024-01-07T08:04:12;1.58;85.79
72591;SHT31;60625;51.212;5.952;2024-01-07T08:09:13;1.58;86.37
72591;SHT31;60625;51.212;5.952;2024-01-07T08:14:13;1.62;86.54
72591;SHT31;60625;51.212;5.952;2024-01-07T08:19:14;1.61;86.31
72591;SHT31;60625;51.212;5.952;2024-01-07T08:24:14;1.58;85.88
72591;SHT31;60625;51.212;5.952;2024-01-07T08:29:15;1.53;85.74
72591;SHT31;60625;51.212;5.952;2024-01-07T08:34:15;1.54;86.03
72591;SHT31;60625;51.212;5.952;2024-01-07T08:39:16;1.53;85.71
72591;SHT31;60625;51.212;5.952;2024-01-07T08:44:17;1.53;85.29
72591;SHT31;60625;51.212;5.952;2024-01-07T08:49:18;1.54;85.13
72591;SHT31;60625;51.212;5.952;2024-01-07T08:54:18;1.54;84.92
72591;SHT31;60625;51.212;5.952;2024-01-07T08:59:19;1.53;84.63
72591;SHT31;60625;51.212;5.952;2024-01-07T09:04:20;1.54;84.60
72591;SHT31;60625;51.212;5.952;2024-01-07T09:09:20;1.57;84.97
72591;SHT31;60625;51.212;5.952;2024-01-07T09:14:21;1.57;84.96
72591;SHT31;60625;51.212;5.952;2024-01-07T09:19:22;1.55;84.88
72591;SHT31;60625;51.212;5.952;2024-01-07T09:24:23;1.54;84.48
72591;SHT31;60625;51.212;5.952;2024-01-07T09:29:24;1.55;84.57
72591;SHT31;60625;51.212;5.952;2024-01-07T09:34:25;1.55;84.82
72591;SHT31;60625;51.212;5.952;2024-01-07T09:39:25;1.57;84.69
72591;SHT31;60625;51.212;5.952;2024-01-07T09:44:26;1.57;84.29
72591;SHT31;60625;51.212;5.952;2024-01-07T09:49:26;1.57;83.94
72591;SHT31;60625;51.212;5.952;2024-01-07T09:54:28;1.57;84.23
72591;SHT31;60625;51.212;5.952;2024-01-07T09:59:29;1.57;83.56
72591;SHT31;60625;51.212;5.952;2024-01-07T10:04:31;1.57;83.74
72591;SHT31;60625;51.212;5.952;2024-01-07T10:09:33;1.58;84.08
72591;SHT31;60625;51.212;5.952;2024-01-07T10:14:34;1.55;83.56
72591;SHT31;60625;51.212;5.952;2024-01-07T10:19:35;1.51;83.00
72591;SHT31;60625;51.212;5.952;2024-01-07T10:24:36;1.49;83.12
72591;SHT31;60625;51.212;5.952;2024-01-07T10:29:39;1.48;83.06
72591;SHT31;60625;51.212;5.952;2024-01-07T10:34:40;1.47;82.94
72591;SHT31;60625;51.212;5.952;2024-01-07T10:39:48;1.48;83.26
72591;SHT31;60625;51.212;5.952;2024-01-07T10:44:49;1.48;83.13
72591;SHT31;60625;51.212;5.952;2024-01-07T10:49:49;1.50;83.11
72591;SHT31;60625;51.212;5.952;2024-01-07T10:54:51;1.51;82.63
72591;SHT31;60625;51.212;5.952;2024-01-07T10:59:52;1.47;82.04
72591;SHT31;60625;51.212;5.952;2024-01-07T11:10:25;1.42;82.50
72591;SHT31;60625;51.212;5.952;2024-01-07T11:20:51;1.40;82.29
72591;SHT31;60625;51.212;5.952;2024-01-07T11:25:53;1.38;82.15
72591;SHT31;60625;51.212;5.952;2024-01-07T11:30:53;1.39;82.39
72591;SHT31;60625;51.212;5.952;2024-01-07T11:35:55;1.48;82.78
72591;SHT31;60625;51.212;5.952;2024-01-07T11:41:01;1.49;81.89
72591;SHT31;60625;51.212;5.952;2024-01-07T11:46:05;1.51;82.25
72591;SHT31;60625;51.212;5.952;2024-01-07T11:51:06;1.53;82.10
72591;SHT31;60625;51.212;5.952;2024-01-07T11:56:08;1.52;81.46
72591;SHT31;60625;51.212;5.952;2024-01-07T12:01:09;1.53;81.78
72591;SHT31;60625;51.212;5.952;2024-01-07T12:06:10;1.54;81.40
72591;SHT31;60625;51.212;5.952;2024-01-07T12:11:14;1.53;81.65
72591;SHT31;60625;51.212;5.952;2024-01-07T12:16:16;1.52;81.46
72591;SHT31;60625;51.212;5.952;2024-01-07T12:21:20;1.49;80.89
72591;SHT31;60625;51.212;5.952;2024-01-07T12:26:27;1.45;80.79
72591;SHT31;60625;51.212;5.952;2024-01-07T12:31:28;1.43;80.54
72591;SHT31;60625;51.212;5.952;2024-01-07T12:36:33;1.38;79.93
72591;SHT31;60625;51.212;5.952;2024-01-07T12:41:34;1.37;80.25
72591;SHT31;60625;51.212;5.952;2024-01-07T12:46:34;1.37;80.16
72591;SHT31;60625;51.212;5.952;2024-01-07T12:51:35;1.37;80.01
72591;SHT31;60625;51.212;5.952;2024-01-07T12:56:35;1.35;80.06
72591;SHT31;60625;51.212;5.952;2024-01-07T13:01:36;1.34;79.72
72591;SHT31;60625;51.212;5.952;2024-01-07T13:06:37;1.32;79.86
72591;SHT31;60625;51.212;5.952;2024-01-07T13:11:37;1.29;79.24
72591;SHT31;60625;51.212;5.952;2024-01-07T13:16:38;1.26;79.14
72591;SHT31;60625;51.212;5.952;2024-01-07T13:21:39;1.25;79.43
72591;SHT31;60625;51.212;5.952;2024-01-07T13:26:39;1.18;77.25
72591;SHT31;60625;51.212;5.952;2024-01-07T13:31:42;1.18;78.22
72591;SHT31;60625;51.212;5.952;2024-01-07T13:36:43;1.21;78.06
72591;SHT31;60625;51.212;5.952;2024-01-07T13:41:44;1.22;77.90
72591;SHT31;60625;51.212;5.952;2024-01-07T13:46:48;1.22;77.82
72591;SHT31;60625;51.212;5.952;2024-01-07T13:51:48;1.21;77.60
72591;SHT31;60625;51.212;5.952;2024-01-07T13:56:49;1.18;76.79
72591;SHT31;60625;51.212;5.952;2024-01-07T14:01:50;1.12;75.90
72591;SHT31;60625;51.212;5.952;2024-01-07T14:06:54;1.03;75.47
72591;SHT31;60625;51.212;5.952;2024-01-07T14:11:57;0.93;75.04
72591;SHT31;60625;51.212;5.952;2024-01-07T14:16:58;0.84;74.68
72591;SHT31;60625;51.212;5.952;2024-01-07T14:21:59;0.75;74.77
72591;SHT31;60625;51.212;5.952;2024-01-07T14:27:00;0.72;74.36
72591;SHT31;60625;51.212;5.952;2024-01-07T14:32:01;0.66;73.98
72591;SHT31;60625;51.212;5.952;2024-01-07T14:37:03;0.59;73.18
72591;SHT31;60625;51.212;5.952;2024-01-07T14:42:03;0.54;74.07
72591;SHT31;60625;51.212;5.952;2024-01-07T14:47:04;0.52;74.06
72591;SHT31;60625;51.212;5.952;2024-01-07T14:52:05;0.48;73.40
72591;SHT31;60625;51.212;5.952;2024-01-07T14:57:06;0.46;72.99
72591;SHT31;60625;51.212;5.952;2024-01-07T15:02:08;0.43;72.47
72591;SHT31;60625;51.212;5.952;2024-01-07T15:07:09;0.37;71.61
72591;SHT31;60625;51.212;5.952;2024-01-07T15:12:09;0.31;71.33
72591;SHT31;60625;51.212;5.952;2024-01-07T15:17:10;0.30;72.14
72591;SHT31;60625;51.212;5.952;2024-01-07T15:22:11;0.31;72.47
72591;SHT31;60625;51.212;5.952;2024-01-07T15:27:12;0.32;72.49
72591;SHT31;60625;51.212;5.952;2024-01-07T15:32:13;0.33;72.47
72591;SHT31;60625;51.212;5.952;2024-01-07T15:37:14;0.34;72.94
72591;SHT31;60625;51.212;5.952;2024-01-07T15:42:14;0.34;71.92
72591;SHT31;60625;51.212;5.952;2024-01-07T15:47:14;0.33;72.54
72591;SHT31;60625;51.212;5.952;2024-01-07T15:52:15;0.33;71.81
72591;SHT31;60625;51.212;5.952;2024-01-07T15:57:15;0.29;71.86
72591;SHT31;60625;51.212;5.952;2024-01-07T16:02:16;0.29;71.96
72591;SHT31;60625;51.212;5.952;2024-01-07T16:07:17;0.28;71.79
72591;SHT31;60625;51.212;5.952;2024-01-07T16:12:17;0.28;70.58
72591;SHT31;60625;51.212;5.952;2024-01-07T16:17:18;0.30;70.97
72591;SHT31;60625;51.212;5.952;2024-01-07T16:22:18;0.32;70.72
72591;SHT31;60625;51.212;5.952;2024-01-07T16:27:19;0.35;70.14
72591;SHT31;60625;51.212;5.952;2024-01-07T16:32:21;0.38;70.28
72591;SHT31;60625;51.212;5.952;2024-01-07T16:37:22;0.40;70.72
72591;SHT31;60625;51.212;5.952;2024-01-07T16:42:22;0.42;71.26
72591;SHT31;60625;51.212;5.952;2024-01-07T16:47:23;0.44;71.36
72591;SHT31;60625;51.212;5.952;2024-01-07T16:52:23;0.45;71.79
72591;SHT31;60625;51.212;5.952;2024-01-07T16:57:24;0.46;72.35
72591;SHT31;60625;51.212;5.952;2024-01-07T17:02:24;0.48;71.33
72591;SHT31;60625;51.212;5.952;2024-01-07T17:07:25;0.48;70.57
72591;SHT31;60625;51.212;5.952;2024-01-07T17:12:28;0.49;70.68
72591;SHT31;60625;51.212;5.952;2024-01-07T17:17:29;0.48;71.86
72591;SHT31;60625;51.212;5.952;2024-01-07T17:22:30;0.47;70.89
72591;SHT31;60625;51.212;5.952;2024-01-07T17:27:30;0.52;70.57
72591;SHT31;60625;51.212;5.952;2024-01-07T17:32:31;0.53;70.81
72591;SHT31;60625;51.212;5.952;2024-01-07T17:37:31;0.55;70.26
72591;SHT31;60625;51.212;5.952;2024-01-07T17:42:34;0.57;70.58
72591;SHT31;60625;51.212;5.952;2024-01-07T17:47:34;0.57;70.90
72591;SHT31;60625;51.212;5.952;2024-01-07T17:52:35;0.54;71.82
72591;SHT31;60625;51.212;5.952;2024-01-07T17:57:35;0.52;71.57
72591;SHT31;60625;51.212;5.952;2024-01-07T18:02:36;0.48;71.71
72591;SHT31;60625;51.212;5.952;2024-01-07T18:07:38;0.44;72.40
72591;SHT31;60625;51.212;5.952;2024-01-07T18:12:38;0.40;72.28
72591;SHT31;60625;51.212;5.952;2024-01-07T18:17:39;0.43;72.26
72591;SHT31;60625;51.212;5.952;2024-01-07T18:22:42;0.44;72.07
72591;SHT31;60625;51.212;5.952;2024-01-07T18:27:43;0.41;72.59
72591;SHT31;60625;51.212;5.952;2024-01-07T18:32:44;0.31;73.81
72591;SHT31;60625;51.212;5.952;2024-01-07T18:37:45;0.21;74.35
72591;SHT31;60625;51.212;5.952;2024-01-07T18:42:50;0.14;74.68
72591;SHT31;60625;51.212;5.952;2024-01-07T18:47:51;0.06;74.85
72591;SHT31;60625;51.212;5.952;2024-01-07T18:52:52;0.01;74.99
72591;SHT31;60625;51.212;5.952;2024-01-07T18:57:52;-0.05;75.43
72591;SHT31;60625;51.212;5.952;2024-01-07T19:02:53;-0.11;75.54
72591;SHT31;60625;51.212;5.952;2024-01-07T19:07:53;-0.17;75.88
72591;SHT31;60625;51.212;5.952;2024-01-07T19:12:55;-0.21;75.44
72591;SHT31;60625;51.212;5.952;2024-01-07T19:17:55;-0.23;75.68
72591;SHT31;60625;51.212;5.952;2024-01-07T19:22:57;-0.26;75.82
72591;SHT31;60625;51.212;5.952;2024-01-07T19:27:58;-0.28;75.76
72591;SHT31;60625;51.212;5.952;2024-01-07T19:32:59;-0.33;76.44
72591;SHT31;60625;51.212;5.952;2024-01-07T19:38:00;-0.38;76.56
72591;SHT31;60625;51.212;5.952;2024-01-07T19:43:01;-0.43;76.93
72591;SHT31;60625;51.212;5.952;2024-01-07T19:48:02;-0.47;77.23
72591;SHT31;60625;51.212;5.952;2024-01-07T19:53:04;-0.50;77.13
72591;SHT31;60625;51.212;5.952;2024-01-07T19:58:05;-0.54;76.99
72591;SHT31;60625;51.212;5.952;2024-01-07T20:03:06;-0.55;77.00
72591;SHT31;60625;51.212;5.952;2024-01-07T20:08:06;-0.58;77.16
72591;SHT31;60625;51.212;5.952;2024-01-07T20:13:08;-0.61;77.14
72591;SHT31;60625;51.212;5.952;2024-01-07T20:18:08;-0.63;77.28
72591;SHT31;60625;51.212;5.952;2024-01-07T20:23:09;-0.66;77.50
72591;SHT31;60625;51.212;5.952;2024-01-07T20:28:09;-0.69;77.44
72591;SHT31;60625;51.212;5.952;2024-01-07T20:33:10;-0.71;77.44
72591;SHT31;60625;51.212;5.952;2024-01-07T20:38:12;-0.74;77.59
72591;SHT31;60625;51.212;5.952;2024-01-07T20:43:13;-0.77;77.69
72591;SHT31;60625;51.212;5.952;2024-01-07T20:48:13;-0.79;77.80
72591;SHT31;60625;51.212;5.952;2024-01-07T20:53:14;-0.82;78.00
72591;SHT31;60625;51.212;5.952;2024-01-07T20:58:15;-0.85;78.09
72591;SHT31;60625;51.212;5.952;2024-01-07T21:03:16;-0.89;78.21
72591;SHT31;60625;51.212;5.952;2024-01-07T21:08:18;-0.91;78.33
72591;SHT31;60625;51.212;5.952;2024-01-07T21:13:19;-0.93;78.47
72591;SHT31;60625;51.212;5.952;2024-01-07T21:18:19;-0.96;78.61
72591;SHT31;60625;51.212;5.952;2024-01-07T21:23:20;-0.97;78.79
72591;SHT31;60625;51.212;5.952;2024-01-07T21:28:21;-0.99;78.98
72591;SHT31;60625;51.212;5.952;2024-01-07T21:33:23;-1.01;79.14
72591;SHT31;60625;51.212;5.952;2024-01-07T21:38:25;-1.04;79.29
72591;SHT31;60625;51.212;5.952;2024-01-07T21:43:26;-1.06;79.47
72591;SHT31;60625;51.212;5.952;2024-01-07T21:48:27;-1.07;79.63
72591;SHT31;60625;51.212;5.952;2024-01-07T21:53:28;-1.10;79.84
72591;SHT31;60625;51.212;5.952;2024-01-07T21:58:28;-1.12;80.01
72591;SHT31;60625;51.212;5.952;2024-01-07T22:03:30;-1.16;80.10
72591;SHT31;60625;51.212;5.952;2024-01-07T22:08:31;-1.20;80.13
72591;SHT31;60625;51.212;5.952;2024-01-07T22:13:32;-1.23;80.19
72591;SHT31;60625;51.212;5.952;2024-01-07T22:18:32;-1.26;80.23
72591;SHT31;60625;51.212;5.952;2024-01-07T22:23:32;-1.28;80.34
72591;SHT31;60625;51.212;5.952;2024-01-07T22:28:33;-1.30;80.27
72591;SHT31;60625;51.212;5.952;2024-01-07T22:33:34;-1.31;80.03
72591;SHT31;60625;51.212;5.952;2024-01-07T22:38:34;-1.31;79.53
72591;SHT31;60625;51.212;5.952;2024-01-07T22:43:35;-1.29;78.86
72591;SHT31;60625;51.212;5.952;2024-01-07T22:48:37;-1.28;78.19
72591;SHT31;60625;51.212;5.952;2024-01-07T22:53:37;-1.25;77.18
72591;SHT31;60625;51.212;5.952;2024-01-07T22:58:38;-1.19;74.85
72591;SHT31;60625;51.212;5.952;2024-01-07T23:03:38;-1.12;74.06
72591;SHT31;60625;51.212;5.952;2024-01-07T23:08:39;-1.06;74.57
72591;SHT31;60625;51.212;5.952;2024-01-07T23:13:39;-0.96;74.07
72591;SHT31;60625;51.212;5.952;2024-01-07T23:18:40;-0.85;74.40
72591;SHT31;60625;51.212;5.952;2024-01-07T23:23:40;-0.80;75.16
72591;SHT31;60625;51.212;5.952;2024-01-07T23:28:41;-0.74;75.64
72591;SHT31;60625;51.212;5.952;2024-01-07T23:33:41;-0.70;76.07
72591;SHT31;60625;51.212;5.952;2024-01-07T23:38:42;-0.66;76.50
72591;SHT31;60625;51.212;5.952;2024-01-07T23:43:43;-0.65;76.29
72591;SHT31;60625;51.212;5.952;2024-01-07T23:48:43;-0.63;76.28
72591;SHT31;60625;51.212;5.952;2024-01-07T23:53:44;-0.62;76.54
72591;SHT31;60625;51.212;5.952;2024-01-07T23:58:45;-0.62;76.53
